Time;durP1;ratioP1;P1;durP2;ratioP2;P2;SDS_P1;SDS_P2;PMS_P1;PMS_P2;Temp;Humidity;BMP_temperature;BMP_pressure;BME280_temperature;BME280_humidity;BME280_pressure;Samples;Min_cycle;Max_cycle;Signal;HPM_P1;HPM_P2
2022/03/02 00:02:07;;;;;;;;;;;18.90;58.20;;;;;;5035448;28;1663;-67
2022/03/02 00:04:32;;;;;;;;;;;18.90;58.20;;;;;;5035013;28;1693;-68
2022/03/02 00:06:58;;;;;;;;;;;18.90;58.20;;;;;;5034851;28;1602;-68
2022/03/02 00:09:23;;;;;;;;;;;18.90;58.20;;;;;;5018283;28;1615;-68
2022/03/02 00:11:49;;;;;;;;;;;18.90;58.20;;;;;;5034862;28;1599;-68
2022/03/02 00:14:14;;;;;;;;;;;18.90;58.20;;;;;;5052722;28;1591;-68
2022/03/02 00:16:39;;;;;;;;;;;18.90;58.20;;;;;;5052602;28;1255;-69
2022/03/02 00:19:05;;;;;;;;;;;18.90;58.20;;;;;;5034320;28;1377;-68
2022/03/02 00:21:30;;;;;;;;;;;18.90;58.20;;;;;;5052463;28;1961;-68
2022/03/02 00:23:56;;;;;;;;;;;18.90;58.30;;;;;;5034968;28;1637;-69
2022/03/02 00:26:21;;;;;;;;;;;18.90;58.30;;;;;;5052770;28;1661;-68
2022/03/02 00:28:47;;;;;;;;;;;18.90;58.30;;;;;;5052317;28;1576;-68
2022/03/02 00:31:12;;;;;;;;;;;18.80;58.20;;;;;;5052556;28;1567;-68
2022/03/02 00:33:37;;;;;;;;;;;18.80;58.30;;;;;;5052787;28;1568;-68
2022/03/02 00:36:03;;;;;;;;;;;18.80;58.30;;;;;;5052280;28;1426;-68
2022/03/02 00:38:28;;;;;;;;;;;18.80;58.30;;;;;;5034503;28;1693;-68
2022/03/02 00:40:54;;;;;;;;;;;18.80;58.30;;;;;;5034756;28;1949;-68
2022/03/02 00:43:19;;;;;;;;;;;18.80;58.30;;;;;;5034370;28;1356;-68
2022/03/02 00:45:45;;;;;;;;;;;18.80;58.30;;;;;;5052418;28;1622;-69
2022/03/02 00:48:10;;;;;;;;;;;18.80;58.30;;;;;;5052432;28;1430;-68
2022/03/02 00:50:36;;;;;;;;;;;18.80;58.30;;;;;;5052149;28;1662;-69
2022/03/02 00:53:02;;;;;;;;;;;18.80;58.30;;;;;;5048209;28;1841;-68
2022/03/02 00:55:28;;;;;;;;;;;18.80;58.40;;;;;;5052337;28;1669;-69
2022/03/02 00:57:53;;;;;;;;;;;18.80;58.40;;;;;;5034811;28;1720;-67
2022/03/02 01:00:19;;;;;;;;;;;18.80;58.40;;;;;;5052392;28;1890;-68
2022/03/02 01:02:46;;;;;;;;;;;18.80;58.40;;;;;;5052756;28;1345;-69
2022/03/02 01:05:11;;;;;;;;;;;18.80;58.90;;;;;;5018597;28;1676;-68
2022/03/02 01:07:36;;;;;;;;;;;18.80;58.40;;;;;;5034548;28;1620;-69
2022/03/02 01:10:02;;;;;;;;;;;18.80;58.40;;;;;;5052278;28;1350;-68
2022/03/02 01:12:28;;;;;;;;;;;18.80;58.40;;;;;;5034661;28;1659;-68
2022/03/02 01:14:53;;;;;;;;;;;18.80;58.40;;;;;;5052697;28;1677;-69
2022/03/02 01:17:19;;;;;;;;;;;18.80;58.40;;;;;;5035359;28;1395;-68
2022/03/02 01:19:44;;;;;;;;;;;18.80;58.40;;;;;;5038090;28;1894;-68
2022/03/02 01:22:10;;;;;;;;;;;18.80;58.40;;;;;;5021782;28;1816;-69
2022/03/02 01:24:35;;;;;;;;;;;18.80;58.50;;;;;;5056348;28;1382;-68
2022/03/02 01:27:01;;;;;;;;;;;18.80;58.50;;;;;;5056056;28;1770;-69
2022/03/02 01:29:28;;;;;;;;;;;18.80;58.50;;;;;;5055859;28;1590;-69
2022/03/02 01:31:54;;;;;;;;;;;18.70;58.50;;;;;;5038312;28;1686;-68
2022/03/02 01:34:19;;;;;;;;;;;18.70;58.40;;;;;;5038156;28;1630;-69
2022/03/02 01:36:45;;;;;;;;;;;18.70;58.50;;;;;;5055695;28;1578;-68
2022/03/02 01:39:10;;;;;;;;;;;18.80;58.50;;;;;;5055807;28;988;-69
2022/03/02 01:41:37;;;;;;;;;;;18.70;58.50;;;;;;5037926;28;1902;-69
2022/03/02 01:44:02;;;;;;;;;;;18.70;58.70;;;;;;5055856;28;1367;-69
2022/03/02 01:46:28;;;;;;;;;;;18.70;58.50;;;;;;5055590;28;1685;-69
2022/03/02 01:48:53;;;;;;;;;;;18.70;58.50;;;;;;5037747;28;1706;-68
2022/03/02 01:51:18;;;;;;;;;;;18.70;58.50;;;;;;5055566;28;1725;-69
2022/03/02 01:53:44;;;;;;;;;;;18.70;58.50;;;;;;5051456;28;1977;-69
2022/03/02 01:56:09;;;;;;;;;;;18.70;58.50;;;;;;5037759;28;1696;-68
2022/03/02 01:58:35;;;;;;;;;;;18.70;58.50;;;;;;5037573;28;1634;-69
2022/03/02 02:01:00;;;;;;;;;;;18.70;58.50;;;;;;5037536;28;1902;-68
2022/03/02 02:03:26;;;;;;;;;;;18.70;58.50;;;;;;5055278;28;1412;-68
2022/03/02 02:05:51;;;;;;;;;;;18.70;58.50;;;;;;5054867;28;1531;-68
2022/03/02 02:08:17;;;;;;;;;;;18.70;58.60;;;;;;5055438;28;1571;-68
2022/03/02 02:10:42;;;;;;;;;;;18.70;58.60;;;;;;5055099;28;1453;-69
2022/03/02 02:13:07;;;;;;;;;;;18.70;58.60;;;;;;5055414;28;1665;-68
2022/03/02 02:15:33;;;;;;;;;;;18.70;58.60;;;;;;5055365;28;1610;-68
2022/03/02 02:17:58;;;;;;;;;;;18.70;58.60;;;;;;5037280;28;1382;-68
2022/03/02 02:20:25;;;;;;;;;;;18.70;58.60;;;;;;5036715;28;1906;-68
2022/03/02 02:22:50;;;;;;;;;;;18.70;58.60;;;;;;5055152;28;1431;-69
2022/03/02 02:25:16;;;;;;;;;;;18.70;58.60;;;;;;5037337;28;1731;-69
2022/03/02 02:27:44;;;;;;;;;;;18.70;59.20;;;;;;5054775;28;1687;-69
2022/03/02 02:30:10;;;;;;;;;;;18.70;58.60;;;;;;5037159;28;1388;-68
2022/03/02 02:32:35;;;;;;;;;;;18.70;58.60;;;;;;5036985;28;1660;-68
2022/03/02 02:35:01;;;;;;;;;;;18.70;58.60;;;;;;5036989;28;1683;-68
2022/03/02 02:37:26;;;;;;;;;;;18.70;58.60;;;;;;5036898;28;1576;-68
2022/03/02 02:39:59;;;;;;;;;;;18.70;58.60;;;;;;5054427;28;1951;-68
2022/03/02 02:42:24;;;;;;;;;;;18.70;58.60;;;;;;5037002;28;1634;-68
2022/03/02 02:44:50;;;;;;;;;;;18.70;58.60;;;;;;5054550;28;1601;-69
2022/03/02 02:47:15;;;;;;;;;;;18.70;58.60;;;;;;5036859;28;1797;-68
2022/03/02 02:49:40;;;;;;;;;;;18.70;58.60;;;;;;5036548;28;1694;-69
2022/03/02 02:52:06;;;;;;;;;;;18.70;58.60;;;;;;5036731;28;1603;-69
2022/03/02 02:54:31;;;;;;;;;;;18.70;58.60;;;;;;5050197;28;1726;-68
2022/03/02 02:56:57;;;;;;;;;;;18.70;58.60;;;;;;5036759;28;1591;-68
2022/03/02 02:59:22;;;;;;;;;;;18.70;58.60;;;;;;5054086;28;1902;-68
2022/03/02 03:01:47;;;;;;;;;;;18.70;58.60;;;;;;5054692;28;1325;-68
2022/03/02 03:04:13;;;;;;;;;;;18.70;58.60;;;;;;5054284;28;1429;-68
2022/03/02 03:06:38;;;;;;;;;;;18.70;59.20;;;;;;5054139;28;1662;-68
2022/03/02 03:09:04;;;;;;;;;;;18.60;58.50;;;;;;5054018;28;1585;-68
2022/03/02 03:11:29;;;;;;;;;;;18.70;58.60;;;;;;5054269;28;1448;-68
2022/03/02 03:13:55;;;;;;;;;;;18.60;58.50;;;;;;5030162;28;1718;-68
2022/03/02 03:16:20;;;;;;;;;;;18.70;58.60;;;;;;5030568;28;1342;-68
2022/03/02 03:18:45;;;;;;;;;;;18.60;58.60;;;;;;5043580;28;1220;-67
2022/03/02 03:21:11;;;;;;;;;;;18.60;58.60;;;;;;5048343;28;1894;-68
2022/03/02 03:23:37;;;;;;;;;;;18.60;58.60;;;;;;5028820;28;1473;-68
2022/03/02 03:26:02;;;;;;;;;;;18.60;58.60;;;;;;5050466;28;1380;-67
2022/03/02 03:28:28;;;;;;;;;;;18.70;58.60;;;;;;5035861;28;1404;-68
2022/03/02 03:30:53;;;;;;;;;;;18.60;58.60;;;;;;5035734;28;1299;-68
2022/03/02 03:33:18;;;;;;;;;;;18.60;58.60;;;;;;5053792;28;1352;-68
2022/03/02 03:35:44;;;;;;;;;;;18.60;58.60;;;;;;5053920;28;1291;-68
2022/03/02 03:38:09;;;;;;;;;;;18.60;58.60;;;;;;5036224;28;1353;-68
2022/03/02 03:40:35;;;;;;;;;;;18.60;58.60;;;;;;5015000;28;1969;-68
2022/03/02 03:43:00;;;;;;;;;;;18.70;58.60;;;;;;5046893;28;1256;-68
2022/03/02 03:45:26;;;;;;;;;;;18.60;58.60;;;;;;5035502;28;1518;-68
2022/03/02 03:47:52;;;;;;;;;;;18.60;58.60;;;;;;5035517;28;1188;-68
2022/03/02 03:50:17;;;;;;;;;;;18.60;58.60;;;;;;5053202;28;1425;-68
2022/03/02 03:52:43;;;;;;;;;;;18.60;58.70;;;;;;5031935;28;1459;-68
2022/03/02 03:55:08;;;;;;;;;;;18.60;58.60;;;;;;5052494;28;1559;-68
2022/03/02 03:57:34;;;;;;;;;;;18.60;58.70;;;;;;5053175;28;1359;-68
2022/03/02 03:59:59;;;;;;;;;;;18.60;58.70;;;;;;5052689;28;1898;-68
2022/03/02 04:02:25;;;;;;;;;;;18.60;58.70;;;;;;5053626;28;1315;-68
2022/03/02 04:04:50;;;;;;;;;;;18.60;58.70;;;;;;5035635;28;1390;-68
2022/03/02 04:07:16;;;;;;;;;;;18.60;58.70;;;;;;5035495;28;1366;-68
2022/03/02 04:09:41;;;;;;;;;;;18.60;58.70;;;;;;5035316;28;1287;-68
2022/03/02 04:12:07;;;;;;;;;;;18.60;58.70;;;;;;5035100;28;1299;-67
2022/03/02 04:14:32;;;;;;;;;;;18.60;58.70;;;;;;5052704;28;1130;-68
2022/03/02 04:16:57;;;;;;;;;;;18.60;58.70;;;;;;5052904;28;1341;-68
2022/03/02 04:19:23;;;;;;;;;;;18.60;58.70;;;;;;5052512;28;1357;-68
2022/03/02 04:21:48;;;;;;;;;;;18.60;58.70;;;;;;5052803;28;1277;-68
2022/03/02 04:24:14;;;;;;;;;;;18.60;58.70;;;;;;5035079;28;1377;-68
2022/03/02 04:26:39;;;;;;;;;;;18.60;58.70;;;;;;5035269;28;1815;-69
2022/03/02 04:29:05;;;;;;;;;;;18.60;58.70;;;;;;5034592;28;1314;-69
2022/03/02 04:31:30;;;;;;;;;;;18.60;58.80;;;;;;5035034;28;1368;-69
2022/03/02 04:33:55;;;;;;;;;;;18.60;58.80;;;;;;5052979;28;1311;-69
2022/03/02 04:36:21;;;;;;;;;;;18.60;59.30;;;;;;5052695;28;1378;-69
2022/03/02 04:38:46;;;;;;;;;;;18.60;58.80;;;;;;5035833;28;1723;-69
2022/03/02 04:41:12;;;;;;;;;;;18.60;58.80;;;;;;5052628;28;1969;-69
2022/03/02 04:43:38;;;;;;;;;;;18.50;58.80;;;;;;5052364;28;1279;-67
2022/03/02 04:46:03;;;;;;;;;;;18.50;58.70;;;;;;5052679;28;1382;-68
2022/03/02 04:48:29;;;;;;;;;;;18.50;58.80;;;;;;5034712;28;1356;-67
2022/03/02 04:50:55;;;;;;;;;;;18.50;58.80;;;;;;5053059;28;1370;-67
2022/03/02 04:53:23;;;;;;;;;;;18.50;58.80;;;;;;5052104;28;1382;-67
2022/03/02 04:55:49;;;;;;;;;;;18.60;58.80;;;;;;5056695;28;1277;-67
2022/03/02 04:58:14;;;;;;;;;;;18.50;58.80;;;;;;5038696;28;1310;-67
2022/03/02 05:00:40;;;;;;;;;;;18.50;58.80;;;;;;5056266;28;1945;-67
2022/03/02 05:03:05;;;;;;;;;;;18.50;58.80;;;;;;5038776;28;1327;-67
2022/03/02 05:05:34;;;;;;;;;;;18.50;58.80;;;;;;5038934;28;1277;-67
2022/03/02 05:08:00;;;;;;;;;;;18.50;58.80;;;;;;5038545;28;1394;-67
2022/03/02 05:10:25;;;;;;;;;;;18.50;58.80;;;;;;5056390;28;1279;-67
2022/03/02 05:12:51;;;;;;;;;;;18.50;58.80;;;;;;5056010;28;1319;-67
2022/03/02 05:15:16;;;;;;;;;;;18.60;59.40;;;;;;5056485;28;1365;-67
2022/03/02 05:17:42;;;;;;;;;;;18.60;58.70;;;;;;5038576;28;1499;-67
2022/03/02 05:20:08;;;;;;;;;;;18.60;58.70;;;;;;5038027;28;1898;-67
2022/03/02 05:22:33;;;;;;;;;;;18.60;58.60;;;;;;5056117;28;1347;-67
2022/03/02 05:24:59;;;;;;;;;;;18.60;58.50;;;;;;5038355;28;1308;-68
2022/03/02 05:27:24;;;;;;;;;;;18.60;58.40;;;;;;5038252;28;1277;-68
2022/03/02 05:29:50;;;;;;;;;;;18.70;58.40;;;;;;5055928;28;927;-68
2022/03/02 05:32:15;;;;;;;;;;;18.70;58.30;;;;;;5055997;28;1210;-68
2022/03/02 05:34:40;;;;;;;;;;;18.70;58.20;;;;;;5038485;28;1111;-68
2022/03/02 05:37:06;;;;;;;;;;;18.80;58.20;;;;;;5055732;28;1354;-68
2022/03/02 05:39:31;;;;;;;;;;;18.80;58.10;;;;;;5055625;28;1965;-68
2022/03/02 05:41:57;;;;;;;;;;;18.80;58.10;;;;;;5055737;28;1087;-68
2022/03/02 05:44:22;;;;;;;;;;;18.80;58.00;;;;;;5055829;28;784;-68
2022/03/02 05:46:48;;;;;;;;;;;18.80;58.00;;;;;;5037977;28;1321;-68
2022/03/02 05:49:13;;;;;;;;;;;18.80;57.90;;;;;;5055675;28;1303;-68
2022/03/02 05:51:39;;;;;;;;;;;18.90;57.90;;;;;;5055756;28;1326;-68
2022/03/02 05:54:04;;;;;;;;;;;18.90;57.90;;;;;;5051323;28;1676;-68
2022/03/02 05:56:33;;;;;;;;;;;18.90;57.80;;;;;;5037750;28;1264;-69
2022/03/02 05:58:58;;;;;;;;;;;18.90;57.80;;;;;;5055348;28;1067;-68
2022/03/02 06:01:24;;;;;;;;;;;18.90;57.80;;;;;;5037680;28;1906;-66
2022/03/02 06:03:49;;;;;;;;;;;18.90;57.80;;;;;;5037019;28;1280;-66
2022/03/02 06:06:15;;;;;;;;;;;18.90;57.70;;;;;;5055736;28;1368;-66
2022/03/02 06:08:40;;;;;;;;;;;18.90;57.80;;;;;;5055134;28;1311;-66
2022/03/02 06:11:06;;;;;;;;;;;18.90;57.70;;;;;;5055272;28;1317;-66
2022/03/02 06:13:32;;;;;;;;;;;18.90;57.70;;;;;;5055271;28;1059;-67
2022/03/02 06:15:57;;;;;;;;;;;18.90;57.60;;;;;;5037426;28;1679;-67
2022/03/02 06:18:23;;;;;;;;;;;18.90;57.60;;;;;;5055043;28;1309;-66
2022/03/02 06:20:49;;;;;;;;;;;19.00;57.60;;;;;;5054881;28;1902;-67
2022/03/02 06:23:15;;;;;;;;;;;19.00;57.50;;;;;;5037428;28;1088;-68
2022/03/02 06:25:40;;;;;;;;;;;19.00;57.50;;;;;;5037304;28;1337;-67
2022/03/02 06:28:05;;;;;;;;;;;19.00;57.40;;;;;;5037216;28;796;-68
2022/03/02 06:30:31;;;;;;;;;;;19.10;57.40;;;;;;5054669;28;1183;-67
2022/03/02 06:32:56;;;;;;;;;;;19.10;57.40;;;;;;5054725;28;1426;-70
2022/03/02 06:35:22;;;;;;;;;;;19.00;57.30;;;;;;5046086;28;1152;-69
2022/03/02 06:37:47;;;;;;;;;;;19.10;57.40;;;;;;5054279;28;1314;-70
2022/03/02 06:40:13;;;;;;;;;;;19.10;57.30;;;;;;5053956;28;1898;-70
2022/03/02 06:43:02;;;;;;;;;;;19.10;57.30;;;;;;5036443;28;1348;-67
2022/03/02 06:45:46;;;;;;;;;;;19.10;57.30;;;;;;5041058;28;1285;-67
2022/03/02 06:48:30;;;;;;;;;;;19.10;57.30;;;;;;5054130;28;1250;-67
2022/03/02 06:50:56;;;;;;;;;;;19.10;57.20;;;;;;5053859;28;1369;-67
2022/03/02 06:53:25;;;;;;;;;;;19.10;57.20;;;;;;5032044;28;1379;-67
2022/03/02 06:55:50;;;;;;;;;;;19.10;57.20;;;;;;5035908;28;1377;-67
2022/03/02 06:58:16;;;;;;;;;;;19.10;57.80;;;;;;5035811;28;1383;-67
2022/03/02 07:00:42;;;;;;;;;;;19.10;57.10;;;;;;5035507;28;1963;-67
2022/03/02 07:03:11;;;;;;;;;;;19.10;57.10;;;;;;5024825;28;1814;-68
2022/03/02 07:05:37;;;;;;;;;;;19.10;57.10;;;;;;5053609;28;1271;-69
2022/03/02 07:08:03;;;;;;;;;;;19.10;57.10;;;;;;5053440;28;1334;-68
2022/03/02 07:10:33;;;;;;;;;;;19.10;57.10;;;;;;5053528;28;1322;-69
2022/03/02 07:12:58;;;;;;;;;;;19.10;57.10;;;;;;5035897;28;1397;-68
2022/03/02 07:15:25;;;;;;;;;;;19.10;57.10;;;;;;5035084;28;1631;-68
2022/03/02 07:17:51;;;;;;;;;;;19.10;57.10;;;;;;5053304;28;1378;-68
2022/03/02 07:20:16;;;;;;;;;;;19.10;57.10;;;;;;5035363;28;1930;-68
2022/03/02 07:22:43;;;;;;;;;;;19.10;57.10;;;;;;5035535;28;1272;-69
2022/03/02 07:25:18;;;;;;;;;;;19.10;57.10;;;;;;5035695;28;1280;-70
2022/03/02 07:27:43;;;;;;;;;;;19.10;57.10;;;;;;5053560;28;1375;-70
2022/03/02 07:30:09;;;;;;;;;;;19.10;57.10;;;;;;5028315;28;2018;-69
2022/03/02 07:32:36;;;;;;;;;;;19.10;57.10;;;;;;5052911;28;1255;-70
2022/03/02 07:35:03;;;;;;;;;;;19.10;57.10;;;;;;5040142;28;1137;-70
2022/03/02 07:37:34;;;;;;;;;;;19.10;57.10;;;;;;5109264;27;1466;-68
2022/03/02 07:39:59;;;;;;;;;;;19.10;57.10;;;;;;5089683;28;1356;-68
2022/03/02 07:42:25;;;;;;;;;;;19.10;57.10;;;;;;5105815;28;1347;-68
2022/03/02 07:44:50;;;;;;;;;;;19.10;57.10;;;;;;5089740;28;1256;-69
2022/03/02 07:47:16;;;;;;;;;;;19.10;57.20;;;;;;5089915;28;1266;-68
2022/03/02 07:49:41;;;;;;;;;;;19.10;57.20;;;;;;5104033;28;1397;-68
2022/03/02 07:52:07;;;;;;;;;;;19.10;57.20;;;;;;5069805;28;1267;-68
2022/03/02 07:54:34;;;;;;;;;;;19.10;57.20;;;;;;5086487;28;1593;-68
2022/03/02 07:56:59;;;;;;;;;;;19.10;57.20;;;;;;5089727;28;1909;-68
2022/03/02 07:59:25;;;;;;;;;;;19.10;57.20;;;;;;5105078;28;1276;-68
2022/03/02 08:01:50;;;;;;;;;;;19.10;57.20;;;;;;5105434;28;1043;-67
2022/03/02 08:04:16;;;;;;;;;;;19.10;57.20;;;;;;5105379;28;1266;-66
2022/03/02 08:06:41;;;;;;;;;;;19.10;57.20;;;;;;5089684;28;1327;-66
2022/03/02 08:09:07;;;;;;;;;;;19.10;57.20;;;;;;5089347;28;1291;-66
2022/03/02 08:11:33;;;;;;;;;;;19.10;57.20;;;;;;5089470;28;1216;-66
2022/03/02 08:13:59;;;;;;;;;;;19.10;57.20;;;;;;5089545;28;1330;-66
2022/03/02 08:16:26;;;;;;;;;;;19.10;57.20;;;;;;5105070;28;1897;-67
2022/03/02 08:18:51;;;;;;;;;;;19.10;57.20;;;;;;5087555;28;1248;-68
2022/03/02 08:21:17;;;;;;;;;;;19.10;57.20;;;;;;5071618;28;1248;-68
2022/03/02 08:23:43;;;;;;;;;;;19.20;57.20;;;;;;5086111;28;1389;-68
2022/03/02 08:26:09;;;;;;;;;;;19.30;57.10;;;;;;5105054;28;1384;-68
2022/03/02 08:28:35;;;;;;;;;;;19.40;57.00;;;;;;5104491;28;1155;-66
2022/03/02 08:31:00;;;;;;;;;;;19.50;56.80;;;;;;5089056;28;1322;-67
2022/03/02 08:33:27;;;;;;;;;;;19.60;56.60;;;;;;5088943;28;1322;-66
2022/03/02 08:35:53;;;;;;;;;;;19.70;56.40;;;;;;5087737;28;1890;-66
2022/03/02 08:38:18;;;;;;;;;;;19.90;56.20;;;;;;5086080;28;1259;-66
2022/03/02 08:40:44;;;;;;;;;;;20.00;55.90;;;;;;5088663;28;1273;-67
2022/03/02 08:43:10;;;;;;;;;;;20.10;55.60;;;;;;5088810;28;1311;-66
2022/03/02 08:45:35;;;;;;;;;;;20.20;55.40;;;;;;5080933;28;1221;-67
2022/03/02 08:48:03;;;;;;;;;;;20.30;55.20;;;;;;5075638;28;1391;-67
2022/03/02 08:50:28;;;;;;;;;;;20.30;54.90;;;;;;5090280;28;1483;-67
2022/03/02 08:52:54;;;;;;;;;;;20.40;54.80;;;;;;5070692;28;1341;-67
2022/03/02 08:55:19;;;;;;;;;;;20.50;54.60;;;;;;5090793;28;1957;-67
2022/03/02 08:57:45;;;;;;;;;;;20.50;54.50;;;;;;5090668;28;1233;-67
2022/03/02 09:00:10;;;;;;;;;;;20.60;54.40;;;;;;5074760;28;1319;-67
2022/03/02 09:02:36;;;;;;;;;;;20.60;54.30;;;;;;5075320;28;1282;-67
2022/03/02 09:05:02;;;;;;;;;;;20.70;54.30;;;;;;5090537;28;1260;-67
2022/03/02 09:07:27;;;;;;;;;;;20.70;54.20;;;;;;5073651;28;1314;-67
2022/03/02 09:09:53;;;;;;;;;;;20.70;54.20;;;;;;5074509;28;1252;-67
2022/03/02 09:12:19;;;;;;;;;;;20.70;54.20;;;;;;5074911;28;1246;-67
2022/03/02 09:14:44;;;;;;;;;;;20.70;54.20;;;;;;5074804;28;1342;-67
2022/03/02 09:17:09;;;;;;;;;;;20.70;54.20;;;;;;5090408;28;1902;-67
2022/03/02 09:19:35;;;;;;;;;;;20.70;54.10;;;;;;5067395;28;1323;-67
2022/03/02 09:22:01;;;;;;;;;;;20.70;54.10;;;;;;5057937;28;1268;-67
2022/03/02 09:24:30;;;;;;;;;;;20.70;54.10;;;;;;5073348;28;1190;-68
2022/03/02 09:26:56;;;;;;;;;;;20.70;54.20;;;;;;5089991;28;1400;-68
2022/03/02 09:29:22;;;;;;;;;;;20.70;54.10;;;;;;5074385;28;1392;-68
2022/03/02 09:31:50;;;;;;;;;;;20.70;54.10;;;;;;5074407;28;1385;-67
2022/03/02 09:34:16;;;;;;;;;;;20.70;54.10;;;;;;5087071;28;1282;-68
2022/03/02 09:36:41;;;;;;;;;;;20.70;54.20;;;;;;5082105;22;2081;-67
2022/03/02 09:39:08;;;;;;;;;;;20.60;54.20;;;;;;5034316;28;1257;-67
2022/03/02 09:41:40;;;;;;;;;;;20.60;54.30;;;;;;5058953;28;1372;-68
2022/03/02 09:44:05;;;;;;;;;;;20.60;54.30;;;;;;5054456;28;1664;-68
2022/03/02 09:46:34;;;;;;;;;;;20.50;54.40;;;;;;5069591;28;1499;-68
2022/03/02 09:49:03;;;;;;;;;;;20.50;54.40;;;;;;5054201;28;1671;-66
2022/03/02 09:51:28;;;;;;;;;;;20.50;54.40;;;;;;5069652;28;1551;-66
2022/03/02 09:53:53;;;;;;;;;;;20.50;54.60;;;;;;5065045;28;1722;-67
2022/03/02 09:56:19;;;;;;;;;;;20.50;54.60;;;;;;5053881;28;1898;-68
2022/03/02 09:58:44;;;;;;;;;;;20.50;54.70;;;;;;5060142;28;1430;-67
2022/03/02 10:01:14;;;;;;;;;;;20.40;54.70;;;;;;5051019;28;1724;-68
2022/03/02 10:03:44;;;;;;;;;;;20.40;54.80;;;;;;5053887;28;1389;-68
2022/03/02 10:06:10;;;;;;;;;;;20.40;54.80;;;;;;5052553;28;1414;-67
2022/03/02 10:08:35;;;;;;;;;;;20.40;54.90;;;;;;5068998;28;1383;-67
2022/03/02 10:11:02;;;;;;;;;;;20.30;54.90;;;;;;5053941;28;1392;-66
2022/03/02 10:13:27;;;;;;;;;;;20.40;54.90;;;;;;5069135;28;1357;-67
2022/03/02 10:15:53;;;;;;;;;;;20.40;55.00;;;;;;5052243;28;1945;-67
2022/03/02 10:18:18;;;;;;;;;;;20.30;55.00;;;;;;5069016;28;1379;-67
2022/03/02 10:20:49;;;;;;;;;;;20.30;55.00;;;;;;5055261;28;1403;-67
2022/03/02 10:23:18;;;;;;;;;;;20.30;55.00;;;;;;5049843;28;1640;-67
2022/03/02 10:26:03;;;;;;;;;;;20.30;55.10;;;;;;5053564;28;1452;-67
2022/03/02 10:28:39;;;;;;;;;;;20.30;55.20;;;;;;5053317;28;1652;-67
2022/03/02 10:31:25;;;;;;;;;;;20.20;55.20;;;;;;5068972;28;1686;-67
2022/03/02 10:33:55;;;;;;;;;;;20.20;55.20;;;;;;5053344;28;1387;-67
2022/03/02 10:36:21;;;;;;;;;;;20.20;55.30;;;;;;5052034;28;1894;-67
2022/03/02 10:38:54;;;;;;;;;;;20.20;55.40;;;;;;5068536;28;1691;-67
2022/03/02 10:41:23;;;;;;;;;;;20.20;55.40;;;;;;5056425;28;1170;-67
2022/03/02 10:43:59;;;;;;;;;;;20.10;55.50;;;;;;5052841;28;1171;-67
2022/03/02 10:46:25;;;;;;;;;;;20.10;55.50;;;;;;5068536;28;1664;-66
2022/03/02 10:49:07;;;;;;;;;;;20.10;55.60;;;;;;5052850;28;1669;-67
2022/03/02 10:51:33;;;;;;;;;;;20.10;55.60;;;;;;5050898;28;1931;-67
2022/03/02 10:54:00;;;;;;;;;;;20.00;55.60;;;;;;5045627;28;1750;-67
2022/03/02 10:56:26;;;;;;;;;;;20.00;55.70;;;;;;5037313;28;1902;-67
2022/03/02 10:58:51;;;;;;;;;;;20.00;55.70;;;;;;5035655;28;1143;-67
2022/03/02 11:01:17;;;;;;;;;;;20.00;55.70;;;;;;5047977;28;1084;-67
2022/03/02 11:03:42;;;;;;;;;;;20.00;55.70;;;;;;5057932;28;1161;-67
2022/03/02 11:06:08;;;;;;;;;;;20.00;55.80;;;;;;5051273;28;1428;-66
2022/03/02 11:08:34;;;;;;;;;;;20.00;55.80;;;;;;5052424;28;1282;-67
2022/03/02 11:10:59;;;;;;;;;;;20.00;55.80;;;;;;5067942;28;1277;-67
2022/03/02 11:13:25;;;;;;;;;;;20.00;55.80;;;;;;5067964;28;1276;-67
2022/03/02 11:15:51;;;;;;;;;;;20.00;55.80;;;;;;5068066;28;1890;-67
2022/03/02 11:18:17;;;;;;;;;;;20.00;55.80;;;;;;5067834;28;1299;-67
2022/03/02 11:20:52;;;;;;;;;;;20.00;55.80;;;;;;5039127;28;1119;-67
2022/03/02 11:23:22;;;;;;;;;;;20.00;55.80;;;;;;5050327;28;1077;-67
2022/03/02 11:25:48;;;;;;;;;;;20.00;55.80;;;;;;5062514;28;1374;-67
2022/03/02 11:28:18;;;;;;;;;;;20.00;55.80;;;;;;5040893;28;1439;-66
2022/03/02 11:30:54;;;;;;;;;;;20.00;55.80;;;;;;5067492;28;1545;-67
2022/03/02 11:33:24;;;;;;;;;;;20.10;55.70;;;;;;5052337;28;1321;-67
2022/03/02 11:35:50;;;;;;;;;;;20.10;55.70;;;;;;5043900;28;1902;-67
2022/03/02 11:38:19;;;;;;;;;;;20.10;55.60;;;;;;5052114;28;1302;-67
2022/03/02 11:40:45;;;;;;;;;;;20.10;55.60;;;;;;5044320;28;1174;-67
2022/03/02 11:43:18;;;;;;;;;;;20.10;55.60;;;;;;5050986;28;1383;-67
2022/03/02 11:45:43;;;;;;;;;;;20.10;55.50;;;;;;5050960;28;1276;-66
2022/03/02 11:48:09;;;;;;;;;;;20.20;55.50;;;;;;5052059;28;1534;-67
2022/03/02 11:50:35;;;;;;;;;;;20.20;55.50;;;;;;5050717;28;1401;-66
2022/03/02 11:53:01;;;;;;;;;;;20.20;55.40;;;;;;5063826;28;1653;-67
2022/03/02 11:55:27;;;;;;;;;;;20.20;55.40;;;;;;5055000;28;1961;-68
2022/03/02 11:57:53;;;;;;;;;;;20.20;55.40;;;;;;5067448;28;1337;-66
2022/03/02 12:00:19;;;;;;;;;;;20.20;55.40;;;;;;5067399;28;1654;-68
2022/03/02 12:02:58;;;;;;;;;;;20.20;55.40;;;;;;5067533;28;1291;-68
2022/03/02 12:05:27;;;;;;;;;;;20.20;55.40;;;;;;5067537;28;1323;-67
2022/03/02 12:07:59;;;;;;;;;;;20.10;56.00;;;;;;5051991;28;1416;-66
2022/03/02 12:10:34;;;;;;;;;;;20.10;55.50;;;;;;5051925;28;1460;-65
2022/03/02 12:13:00;;;;;;;;;;;20.10;55.50;;;;;;5067523;28;1384;-66
2022/03/02 12:15:26;;;;;;;;;;;20.10;55.50;;;;;;5067453;28;1951;-67
2022/03/02 12:17:53;;;;;;;;;;;20.10;55.50;;;;;;5067355;28;1525;-66
2022/03/02 12:20:20;;;;;;;;;;;20.10;55.60;;;;;;5053795;28;1599;-66
2022/03/02 12:22:46;;;;;;;;;;;20.10;55.60;;;;;;5033298;28;1441;-66
2022/03/02 12:25:12;;;;;;;;;;;20.10;55.60;;;;;;5051376;28;1615;-66
2022/03/02 12:27:38;;;;;;;;;;;20.10;55.60;;;;;;5071350;28;1676;-66
2022/03/02 12:30:05;;;;;;;;;;;20.10;55.70;;;;;;5054675;28;1641;-66
2022/03/02 12:32:34;;;;;;;;;;;20.00;55.60;;;;;;5055436;28;1664;-66
2022/03/02 12:34:59;;;;;;;;;;;20.00;55.60;;;;;;5046817;28;1637;-68
2022/03/02 12:37:25;;;;;;;;;;;20.00;55.70;;;;;;5055462;28;1918;-66
2022/03/02 12:39:51;;;;;;;;;;;20.00;55.70;;;;;;5055392;28;1685;-67
2022/03/02 12:42:17;;;;;;;;;;;20.00;55.70;;;;;;5034028;28;1127;-67
2022/03/02 12:44:43;;;;;;;;;;;20.00;55.70;;;;;;5045057;28;1880;-65
2022/03/02 12:47:10;;;;;;;;;;;20.00;55.70;;;;;;5038602;28;1948;-66
2022/03/02 12:49:35;;;;;;;;;;;20.00;55.80;;;;;;5035239;28;1313;-66
2022/03/02 12:52:01;;;;;;;;;;;20.00;55.70;;;;;;5053653;28;1382;-66
2022/03/02 12:54:27;;;;;;;;;;;20.00;55.70;;;;;;5065896;28;1859;-66
2022/03/02 12:56:52;;;;;;;;;;;20.00;55.70;;;;;;5055425;28;1910;-66
2022/03/02 12:59:18;;;;;;;;;;;20.10;55.70;;;;;;5055239;28;1615;-66
2022/03/02 13:01:44;;;;;;;;;;;20.10;55.60;;;;;;5051984;28;1386;-67
2022/03/02 13:04:11;;;;;;;;;;;20.10;55.50;;;;;;5055615;28;803;-67
2022/03/02 13:06:38;;;;;;;;;;;20.20;55.50;;;;;;5070546;28;1425;-66
2022/03/02 13:09:07;;;;;;;;;;;20.20;55.40;;;;;;5070636;28;1688;-69
2022/03/02 13:11:32;;;;;;;;;;;20.20;55.30;;;;;;5064354;28;1467;-67
2022/03/02 13:13:58;;;;;;;;;;;20.20;55.30;;;;;;5048730;28;1559;-68
2022/03/02 13:16:24;;;;;;;;;;;20.20;55.80;;;;;;5054931;28;1956;-66
2022/03/02 13:18:50;;;;;;;;;;;20.30;55.20;;;;;;5069475;28;1325;-67
2022/03/02 13:21:29;;;;;;;;;;;20.30;55.20;;;;;;5054651;28;1298;-68
2022/03/02 13:24:05;;;;;;;;;;;20.30;55.20;;;;;;5066960;28;1416;-68
2022/03/02 13:26:32;;;;;;;;;;;20.30;55.20;;;;;;5070309;28;1670;-66
2022/03/02 13:29:07;;;;;;;;;;;20.30;55.20;;;;;;5054555;28;1072;-66
2022/03/02 13:31:52;;;;;;;;;;;20.30;55.20;;;;;;5053606;28;1591;-67
2022/03/02 13:34:19;;;;;;;;;;;20.30;55.20;;;;;;5042021;28;1092;-68
2022/03/02 13:36:51;;;;;;;;;;;20.30;55.20;;;;;;5051233;28;1965;-69
2022/03/02 13:39:22;;;;;;;;;;;20.30;55.30;;;;;;5069391;28;1691;-68
2022/03/02 13:41:48;;;;;;;;;;;20.30;55.20;;;;;;5069833;28;1214;-67
2022/03/02 13:44:27;;;;;;;;;;;20.20;55.20;;;;;;5070081;28;1610;-69
2022/03/02 13:47:16;;;;;;;;;;;20.30;55.20;;;;;;5069736;28;1734;-69
2022/03/02 13:49:44;;;;;;;;;;;20.20;55.20;;;;;;5052848;28;1708;-68
2022/03/02 13:52:10;;;;;;;;;;;20.20;55.20;;;;;;5054718;28;882;-68
2022/03/02 13:54:35;;;;;;;;;;;20.20;55.80;;;;;;5065815;28;1640;-68
2022/03/02 13:57:01;;;;;;;;;;;20.20;55.30;;;;;;5054431;28;1919;-67
2022/03/02 13:59:27;;;;;;;;;;;20.20;55.30;;;;;;5052854;28;1083;-67
2022/03/02 14:01:52;;;;;;;;;;;20.20;55.30;;;;;;5041372;28;2022;-69
2022/03/02 14:04:18;;;;;;;;;;;20.20;55.30;;;;;;5048615;28;1544;-68
2022/03/02 14:06:44;;;;;;;;;;;20.20;55.40;;;;;;5046551;28;1258;-67
2022/03/02 14:09:10;;;;;;;;;;;20.20;55.40;;;;;;5049705;28;1155;-67
2022/03/02 14:11:43;;;;;;;;;;;20.20;55.40;;;;;;5034271;28;1183;-68
2022/03/02 14:14:13;;;;;;;;;;;20.20;55.40;;;;;;5051853;28;905;-68
2022/03/02 14:16:38;;;;;;;;;;;20.10;55.40;;;;;;5054152;28;1890;-68
2022/03/02 14:19:08;;;;;;;;;;;20.10;55.50;;;;;;5069707;28;901;-67
2022/03/02 14:21:34;;;;;;;;;;;20.10;55.50;;;;;;5057997;28;1380;-68
2022/03/02 14:24:09;;;;;;;;;;;20.10;55.50;;;;;;5049728;28;1480;-68
2022/03/02 14:26:35;;;;;;;;;;;20.10;55.60;;;;;;5044991;28;1237;-68
2022/03/02 14:29:00;;;;;;;;;;;20.10;55.60;;;;;;5035871;28;1481;-67